Terminal Aerodrome Forecast
Issued by NWS

Home | Current Version | Previous Version | Text Only | Print | Product List | Glossary On
Versions: 1 2 3 4 5 6 7 8 9 10 11 12 13 14 15 16 17 18 19 20 21 22 23 24 25 26 27 28 29 30 31 32 33 34
704
FTUS44 KMAF 221100
TAFFST
TAF
KFST 221125Z 2212/2312 34004KT 1SM BR OVC002
      TEMPO 2212/2214 1/2SM FG VV002
     FM221500 15008KT P6SM OVC012
     FM221900 15010KT P6SM SCT025 SCT250
     FM222000 15013KT P6SM BKN030=

USA.gov is the U.S. government's official web portal to all federal, state and local government web resources and services.